sensor_id;sensor_type;location;lat;lon;timestamp;P1;durP1;ratioP1;P2;durP2;ratioP2
65996;SDS011;52765;52.258;21.052;2023-05-21T00:01:00;6.00;;;4.50;;
65996;SDS011;52765;52.258;21.052;2023-05-21T00:03:29;8.77;;;4.85;;
65996;SDS011;52765;52.258;21.052;2023-05-21T00:05:56;7.40;;;4.80;;
65996;SDS011;52765;52.258;21.052;2023-05-21T00:08:22;8.48;;;5.25;;
65996;SDS011;52765;52.258;21.052;2023-05-21T00:10:48;9.75;;;5.30;;
65996;SDS011;52765;52.258;21.052;2023-05-21T00:13:13;7.40;;;4.25;;
65996;SDS011;52765;52.258;21.052;2023-05-21T00:15:39;6.30;;;4.30;;
65996;SDS011;52765;52.258;21.052;2023-05-21T00:18:05;7.07;;;4.88;;
65996;SDS011;52765;52.258;21.052;2023-05-21T00:20:31;6.53;;;4.38;;
65996;SDS011;52765;52.258;21.052;2023-05-21T00:23:00;7.85;;;4.85;;
65996;SDS011;52765;52.258;21.052;2023-05-21T00:25:30;8.75;;;5.13;;
65996;SDS011;52765;52.258;21.052;2023-05-21T00:27:57;12.10;;;5.13;;
65996;SDS011;52765;52.258;21.052;2023-05-21T00:30:22;7.13;;;4.45;;
65996;SDS011;52765;52.258;21.052;2023-05-21T00:32:48;10.02;;;5.00;;
65996;SDS011;52765;52.258;21.052;2023-05-21T00:35:16;6.97;;;4.95;;
65996;SDS011;52765;52.258;21.052;2023-05-21T00:37:42;6.90;;;4.45;;
65996;SDS011;52765;52.258;21.052;2023-05-21T00:40:08;6.30;;;4.28;;
65996;SDS011;52765;52.258;21.052;2023-05-21T00:42:38;7.22;;;4.43;;
65996;SDS011;52765;52.258;21.052;2023-05-21T00:45:05;9.85;;;5.22;;
65996;SDS011;52765;52.258;21.052;2023-05-21T00:47:31;7.57;;;4.32;;
65996;SDS011;52765;52.258;21.052;2023-05-21T00:49:58;10.93;;;5.47;;
65996;SDS011;52765;52.258;21.052;2023-05-21T00:52:24;8.68;;;4.50;;
65996;SDS011;52765;52.258;21.052;2023-05-21T00:54:51;8.07;;;4.90;;
65996;SDS011;52765;52.258;21.052;2023-05-21T00:57:17;7.32;;;4.32;;
65996;SDS011;52765;52.258;21.052;2023-05-21T00:59:47;7.63;;;4.50;;
65996;SDS011;52765;52.258;21.052;2023-05-21T01:02:16;7.03;;;4.70;;
65996;SDS011;52765;52.258;21.052;2023-05-21T01:04:45;6.63;;;4.30;;
65996;SDS011;52765;52.258;21.052;2023-05-21T01:07:11;8.60;;;4.82;;
65996;SDS011;52765;52.258;21.052;2023-05-21T01:09:39;9.45;;;4.82;;
65996;SDS011;52765;52.258;21.052;2023-05-21T01:12:06;8.60;;;4.50;;
65996;SDS011;52765;52.258;21.052;2023-05-21T01:14:33;8.60;;;4.80;;
65996;SDS011;52765;52.258;21.052;2023-05-21T01:17:01;8.05;;;4.70;;
65996;SDS011;52765;52.258;21.052;2023-05-21T01:19:29;9.00;;;4.95;;
65996;SDS011;52765;52.258;21.052;2023-05-21T01:21:59;8.50;;;4.97;;
65996;SDS011;52765;52.258;21.052;2023-05-21T01:24:28;8.25;;;5.03;;
65996;SDS011;52765;52.258;21.052;2023-05-21T01:26:54;10.63;;;5.30;;
65996;SDS011;52765;52.258;21.052;2023-05-21T01:29:20;9.00;;;4.75;;
65996;SDS011;52765;52.258;21.052;2023-05-21T01:34:31;7.50;;;4.07;;
65996;SDS011;52765;52.258;21.052;2023-05-21T01:37:18;8.50;;;4.47;;
65996;SDS011;52765;52.258;21.052;2023-05-21T01:39:56;11.82;;;4.53;;
65996;SDS011;52765;52.258;21.052;2023-05-21T01:42:27;8.32;;;3.90;;
65996;SDS011;52765;52.258;21.052;2023-05-21T01:44:55;6.60;;;3.85;;
65996;SDS011;52765;52.258;21.052;2023-05-21T01:47:23;6.07;;;4.22;;
65996;SDS011;52765;52.258;21.052;2023-05-21T01:49:51;7.53;;;4.35;;
65996;SDS011;52765;52.258;21.052;2023-05-21T01:52:17;9.05;;;3.95;;
65996;SDS011;52765;52.258;21.052;2023-05-21T01:54:43;5.57;;;3.90;;
65996;SDS011;52765;52.258;21.052;2023-05-21T01:57:08;8.45;;;4.90;;
65996;SDS011;52765;52.258;21.052;2023-05-21T01:59:33;7.93;;;4.68;;
65996;SDS011;52765;52.258;21.052;2023-05-21T02:02:00;5.47;;;4.25;;
65996;SDS011;52765;52.258;21.052;2023-05-21T02:04:26;6.25;;;4.22;;
65996;SDS011;52765;52.258;21.052;2023-05-21T02:06:52;11.88;;;4.90;;
65996;SDS011;52765;52.258;21.052;2023-05-21T02:09:19;8.18;;;4.70;;
65996;SDS011;52765;52.258;21.052;2023-05-21T02:11:44;8.85;;;4.90;;
65996;SDS011;52765;52.258;21.052;2023-05-21T02:14:10;8.15;;;4.47;;
65996;SDS011;52765;52.258;21.052;2023-05-21T02:16:38;8.52;;;4.95;;
65996;SDS011;52765;52.258;21.052;2023-05-21T02:19:04;7.85;;;4.88;;
65996;SDS011;52765;52.258;21.052;2023-05-21T02:21:30;11.18;;;4.60;;
65996;SDS011;52765;52.258;21.052;2023-05-21T02:23:56;9.20;;;4.95;;
65996;SDS011;52765;52.258;21.052;2023-05-21T02:26:21;8.73;;;5.05;;
65996;SDS011;52765;52.258;21.052;2023-05-21T02:28:47;11.68;;;5.20;;
65996;SDS011;52765;52.258;21.052;2023-05-21T02:31:12;8.38;;;4.78;;
65996;SDS011;52765;52.258;21.052;2023-05-21T02:33:44;8.52;;;4.82;;
65996;SDS011;52765;52.258;21.052;2023-05-21T02:36:10;9.77;;;5.00;;
65996;SDS011;52765;52.258;21.052;2023-05-21T02:38:39;7.03;;;5.07;;
65996;SDS011;52765;52.258;21.052;2023-05-21T02:41:07;10.05;;;5.18;;
65996;SDS011;52765;52.258;21.052;2023-05-21T02:43:36;11.55;;;5.32;;
65996;SDS011;52765;52.258;21.052;2023-05-21T02:46:03;8.38;;;5.20;;
65996;SDS011;52765;52.258;21.052;2023-05-21T02:48:29;10.38;;;4.93;;
65996;SDS011;52765;52.258;21.052;2023-05-21T02:50:55;8.18;;;5.47;;
65996;SDS011;52765;52.258;21.052;2023-05-21T02:53:20;9.68;;;5.55;;
65996;SDS011;52765;52.258;21.052;2023-05-21T02:55:46;8.52;;;4.47;;
65996;SDS011;52765;52.258;21.052;2023-05-21T02:58:11;8.70;;;4.50;;
65996;SDS011;52765;52.258;21.052;2023-05-21T03:00:39;9.25;;;4.80;;
65996;SDS011;52765;52.258;21.052;2023-05-21T03:03:04;8.38;;;5.13;;
65996;SDS011;52765;52.258;21.052;2023-05-21T03:05:30;12.63;;;4.70;;
65996;SDS011;52765;52.258;21.052;2023-05-21T03:07:55;9.25;;;4.88;;
65996;SDS011;52765;52.258;21.052;2023-05-21T03:10:21;6.93;;;4.57;;
65996;SDS011;52765;52.258;21.052;2023-05-21T03:12:46;9.07;;;4.75;;
65996;SDS011;52765;52.258;21.052;2023-05-21T03:15:12;7.55;;;4.63;;
65996;SDS011;52765;52.258;21.052;2023-05-21T03:17:43;9.48;;;4.90;;
65996;SDS011;52765;52.258;21.052;2023-05-21T03:20:09;10.32;;;4.53;;
65996;SDS011;52765;52.258;21.052;2023-05-21T03:22:41;7.72;;;4.88;;
65996;SDS011;52765;52.258;21.052;2023-05-21T03:25:10;8.02;;;4.90;;
65996;SDS011;52765;52.258;21.052;2023-05-21T03:27:36;9.55;;;5.07;;
65996;SDS011;52765;52.258;21.052;2023-05-21T03:30:02;7.68;;;5.07;;
65996;SDS011;52765;52.258;21.052;2023-05-21T03:32:28;11.35;;;5.05;;
65996;SDS011;52765;52.258;21.052;2023-05-21T03:35:03;7.85;;;4.60;;
65996;SDS011;52765;52.258;21.052;2023-05-21T03:37:32;8.18;;;5.07;;
65996;SDS011;52765;52.258;21.052;2023-05-21T03:39:57;8.35;;;4.57;;
65996;SDS011;52765;52.258;21.052;2023-05-21T03:42:31;8.18;;;5.05;;
65996;SDS011;52765;52.258;21.052;2023-05-21T03:44:57;7.28;;;4.22;;
65996;SDS011;52765;52.258;21.052;2023-05-21T03:47:25;14.25;;;4.93;;
65996;SDS011;52765;52.258;21.052;2023-05-21T03:49:51;6.18;;;4.38;;
65996;SDS011;52765;52.258;21.052;2023-05-21T03:52:16;10.07;;;4.53;;
65996;SDS011;52765;52.258;21.052;2023-05-21T03:54:42;7.45;;;4.80;;
65996;SDS011;52765;52.258;21.052;2023-05-21T03:57:07;9.13;;;4.70;;
65996;SDS011;52765;52.258;21.052;2023-05-21T03:59:32;10.02;;;5.10;;
65996;SDS011;52765;52.258;21.052;2023-05-21T04:01:58;10.38;;;5.30;;
65996;SDS011;52765;52.258;21.052;2023-05-21T04:04:27;6.38;;;4.50;;
65996;SDS011;52765;52.258;21.052;2023-05-21T04:06:53;7.20;;;4.40;;
65996;SDS011;52765;52.258;21.052;2023-05-21T04:09:21;5.95;;;4.00;;
65996;SDS011;52765;52.258;21.052;2023-05-21T04:11:47;7.35;;;4.70;;
65996;SDS011;52765;52.258;21.052;2023-05-21T04:14:12;7.15;;;4.22;;
65996;SDS011;52765;52.258;21.052;2023-05-21T04:16:38;10.60;;;4.93;;
65996;SDS011;52765;52.258;21.052;2023-05-21T04:19:04;7.15;;;3.83;;
65996;SDS011;52765;52.258;21.052;2023-05-21T04:21:30;7.05;;;4.38;;
65996;SDS011;52765;52.258;21.052;2023-05-21T04:23:56;6.43;;;3.83;;
65996;SDS011;52765;52.258;21.052;2023-05-21T04:26:22;9.93;;;4.20;;
65996;SDS011;52765;52.258;21.052;2023-05-21T04:28:49;5.93;;;3.55;;
65996;SDS011;52765;52.258;21.052;2023-05-21T04:31:15;7.25;;;3.80;;
65996;SDS011;52765;52.258;21.052;2023-05-21T04:33:40;7.18;;;3.40;;
65996;SDS011;52765;52.258;21.052;2023-05-21T04:36:09;8.65;;;3.75;;
65996;SDS011;52765;52.258;21.052;2023-05-21T04:38:35;6.32;;;3.80;;
65996;SDS011;52765;52.258;21.052;2023-05-21T04:41:01;7.40;;;3.00;;
65996;SDS011;52765;52.258;21.052;2023-05-21T04:43:30;5.53;;;3.42;;
65996;SDS011;52765;52.258;21.052;2023-05-21T04:46:02;9.73;;;3.72;;
65996;SDS011;52765;52.258;21.052;2023-05-21T04:48:27;6.50;;;2.97;;
65996;SDS011;52765;52.258;21.052;2023-05-21T04:50:53;5.30;;;2.83;;
65996;SDS011;52765;52.258;21.052;2023-05-21T04:53:20;5.78;;;2.67;;
65996;SDS011;52765;52.258;21.052;2023-05-21T04:55:46;5.38;;;2.85;;
65996;SDS011;52765;52.258;21.052;2023-05-21T04:58:12;4.53;;;2.92;;
65996;SDS011;52765;52.258;21.052;2023-05-21T05:00:38;3.92;;;3.15;;
65996;SDS011;52765;52.258;21.052;2023-05-21T05:03:04;5.78;;;2.83;;
65996;SDS011;52765;52.258;21.052;2023-05-21T05:05:29;5.72;;;3.33;;
65996;SDS011;52765;52.258;21.052;2023-05-21T05:07:55;7.22;;;3.00;;
65996;SDS011;52765;52.258;21.052;2023-05-21T05:10:22;5.80;;;3.25;;
65996;SDS011;52765;52.258;21.052;2023-05-21T05:12:47;6.00;;;3.22;;
65996;SDS011;52765;52.258;21.052;2023-05-21T05:15:13;5.93;;;3.10;;
65996;SDS011;52765;52.258;21.052;2023-05-21T05:17:39;5.50;;;3.40;;
65996;SDS011;52765;52.258;21.052;2023-05-21T05:20:07;8.57;;;3.28;;
65996;SDS011;52765;52.258;21.052;2023-05-21T05:22:34;4.53;;;2.90;;
65996;SDS011;52765;52.258;21.052;2023-05-21T05:24:59;6.22;;;2.85;;
65996;SDS011;52765;52.258;21.052;2023-05-21T05:27:25;4.68;;;3.00;;
65996;SDS011;52765;52.258;21.052;2023-05-21T05:29:50;4.93;;;3.13;;
65996;SDS011;52765;52.258;21.052;2023-05-21T05:32:16;6.05;;;3.60;;
65996;SDS011;52765;52.258;21.052;2023-05-21T05:34:42;5.97;;;3.88;;
65996;SDS011;52765;52.258;21.052;2023-05-21T05:37:09;4.93;;;2.95;;
65996;SDS011;52765;52.258;21.052;2023-05-21T05:39:34;5.28;;;2.92;;
65996;SDS011;52765;52.258;21.052;2023-05-21T05:42:00;4.63;;;2.58;;
65996;SDS011;52765;52.258;21.052;2023-05-21T05:44:26;8.13;;;2.88;;
65996;SDS011;52765;52.258;21.052;2023-05-21T05:46:51;7.00;;;2.67;;
65996;SDS011;52765;52.258;21.052;2023-05-21T05:49:17;5.18;;;2.70;;
65996;SDS011;52765;52.258;21.052;2023-05-21T05:51:42;4.65;;;2.67;;
65996;SDS011;52765;52.258;21.052;2023-05-21T05:54:08;4.72;;;2.47;;
65996;SDS011;52765;52.258;21.052;2023-05-21T05:56:33;3.50;;;2.58;;
65996;SDS011;52765;52.258;21.052;2023-05-21T05:58:59;3.40;;;2.30;;
65996;SDS011;52765;52.258;21.052;2023-05-21T06:01:24;6.00;;;2.85;;
65996;SDS011;52765;52.258;21.052;2023-05-21T06:03:50;6.57;;;2.42;;
65996;SDS011;52765;52.258;21.052;2023-05-21T06:06:17;4.45;;;2.30;;
65996;SDS011;52765;52.258;21.052;2023-05-21T06:08:42;7.97;;;2.60;;
65996;SDS011;52765;52.258;21.052;2023-05-21T06:11:08;4.45;;;2.65;;
65996;SDS011;52765;52.258;21.052;2023-05-21T06:13:34;3.60;;;2.38;;
65996;SDS011;52765;52.258;21.052;2023-05-21T06:16:00;3.08;;;2.45;;
65996;SDS011;52765;52.258;21.052;2023-05-21T06:18:26;4.25;;;2.10;;
65996;SDS011;52765;52.258;21.052;2023-05-21T06:20:51;5.13;;;2.58;;
65996;SDS011;52765;52.258;21.052;2023-05-21T06:23:17;4.18;;;2.30;;
65996;SDS011;52765;52.258;21.052;2023-05-21T06:25:42;4.07;;;2.33;;
65996;SDS011;52765;52.258;21.052;2023-05-21T06:28:10;5.57;;;2.53;;
65996;SDS011;52765;52.258;21.052;2023-05-21T06:30:36;4.85;;;2.45;;
65996;SDS011;52765;52.258;21.052;2023-05-21T06:33:02;4.70;;;2.55;;
65996;SDS011;52765;52.258;21.052;2023-05-21T06:35:27;14.05;;;7.80;;
65996;SDS011;52765;52.258;21.052;2023-05-21T06:37:53;6.45;;;3.50;;
65996;SDS011;52765;52.258;21.052;2023-05-21T06:40:18;5.03;;;2.90;;
65996;SDS011;52765;52.258;21.052;2023-05-21T06:42:44;5.45;;;3.13;;
65996;SDS011;52765;52.258;21.052;2023-05-21T06:45:10;6.95;;;2.60;;
65996;SDS011;52765;52.258;21.052;2023-05-21T06:47:36;3.45;;;2.45;;
65996;SDS011;52765;52.258;21.052;2023-05-21T06:50:02;5.38;;;2.88;;
65996;SDS011;52765;52.258;21.052;2023-05-21T06:52:28;5.22;;;2.45;;
65996;SDS011;52765;52.258;21.052;2023-05-21T06:54:55;4.43;;;2.20;;
65996;SDS011;52765;52.258;21.052;2023-05-21T06:57:21;4.72;;;2.70;;
65996;SDS011;52765;52.258;21.052;2023-05-21T06:59:46;7.38;;;2.00;;
65996;SDS011;52765;52.258;21.052;2023-05-21T07:02:12;4.03;;;2.30;;
65996;SDS011;52765;52.258;21.052;2023-05-21T07:04:38;3.25;;;2.30;;
65996;SDS011;52765;52.258;21.052;2023-05-21T07:07:03;3.58;;;2.50;;
65996;SDS011;52765;52.258;21.052;2023-05-21T07:09:29;3.50;;;2.42;;
65996;SDS011;52765;52.258;21.052;2023-05-21T07:11:55;4.75;;;2.90;;
65996;SDS011;52765;52.258;21.052;2023-05-21T07:14:23;5.82;;;2.70;;
65996;SDS011;52765;52.258;21.052;2023-05-21T07:16:50;4.70;;;3.15;;
65996;SDS011;52765;52.258;21.052;2023-05-21T07:19:17;4.07;;;2.50;;
65996;SDS011;52765;52.258;21.052;2023-05-21T07:21:42;4.28;;;2.40;;
65996;SDS011;52765;52.258;21.052;2023-05-21T07:24:08;3.30;;;2.20;;
65996;SDS011;52765;52.258;21.052;2023-05-21T07:26:34;4.25;;;2.13;;
65996;SDS011;52765;52.258;21.052;2023-05-21T07:28:59;6.30;;;2.63;;
65996;SDS011;52765;52.258;21.052;2023-05-21T07:31:27;1.80;;;1.60;;
65996;SDS011;52765;52.258;21.052;2023-05-21T07:33:53;2.67;;;1.75;;
65996;SDS011;52765;52.258;21.052;2023-05-21T07:36:21;2.78;;;1.80;;
65996;SDS011;52765;52.258;21.052;2023-05-21T07:38:47;4.22;;;2.15;;
65996;SDS011;52765;52.258;21.052;2023-05-21T07:41:15;7.70;;;3.42;;
65996;SDS011;52765;52.258;21.052;2023-05-21T07:43:46;3.75;;;2.30;;
65996;SDS011;52765;52.258;21.052;2023-05-21T07:46:11;5.32;;;2.40;;
65996;SDS011;52765;52.258;21.052;2023-05-21T07:48:37;4.30;;;2.03;;
65996;SDS011;52765;52.258;21.052;2023-05-21T07:51:03;5.05;;;2.30;;
65996;SDS011;52765;52.258;21.052;2023-05-21T07:53:29;5.13;;;2.00;;
65996;SDS011;52765;52.258;21.052;2023-05-21T07:55:58;6.43;;;3.47;;
65996;SDS011;52765;52.258;21.052;2023-05-21T07:58:24;5.00;;;2.60;;
65996;SDS011;52765;52.258;21.052;2023-05-21T08:00:49;4.90;;;2.38;;
65996;SDS011;52765;52.258;21.052;2023-05-21T08:03:15;6.07;;;2.72;;
65996;SDS011;52765;52.258;21.052;2023-05-21T08:05:45;3.72;;;2.30;;
65996;SDS011;52765;52.258;21.052;2023-05-21T08:10:40;4.78;;;2.80;;
65996;SDS011;52765;52.258;21.052;2023-05-21T08:13:06;4.30;;;2.03;;
65996;SDS011;52765;52.258;21.052;2023-05-21T08:15:31;4.00;;;2.10;;
65996;SDS011;52765;52.258;21.052;2023-05-21T08:17:57;5.53;;;2.90;;
65996;SDS011;52765;52.258;21.052;2023-05-21T08:20:25;5.30;;;2.20;;
65996;SDS011;52765;52.258;21.052;2023-05-21T08:22:53;4.90;;;2.10;;
65996;SDS011;52765;52.258;21.052;2023-05-21T08:25:19;7.75;;;2.40;;
65996;SDS011;52765;52.258;21.052;2023-05-21T08:27:44;3.83;;;1.95;;
65996;SDS011;52765;52.258;21.052;2023-05-21T08:30:10;8.20;;;1.90;;
65996;SDS011;52765;52.258;21.052;2023-05-21T08:32:36;4.57;;;1.80;;
65996;SDS011;52765;52.258;21.052;2023-05-21T08:35:02;4.75;;;2.17;;
65996;SDS011;52765;52.258;21.052;2023-05-21T08:37:30;8.68;;;1.98;;
65996;SDS011;52765;52.258;21.052;2023-05-21T08:39:56;7.28;;;2.28;;
65996;SDS011;52765;52.258;21.052;2023-05-21T08:47:23;4.43;;;2.03;;
65996;SDS011;52765;52.258;21.052;2023-05-21T08:49:56;4.75;;;1.70;;
65996;SDS011;52765;52.258;21.052;2023-05-21T08:52:23;5.40;;;2.97;;
65996;SDS011;52765;52.258;21.052;2023-05-21T08:54:50;3.17;;;2.20;;
65996;SDS011;52765;52.258;21.052;2023-05-21T08:57:17;7.97;;;2.42;;
65996;SDS011;52765;52.258;21.052;2023-05-21T08:59:44;5.13;;;1.98;;
65996;SDS011;52765;52.258;21.052;2023-05-21T09:02:12;3.17;;;1.90;;
65996;SDS011;52765;52.258;21.052;2023-05-21T09:04:41;4.15;;;2.50;;
65996;SDS011;52765;52.258;21.052;2023-05-21T09:07:12;4.22;;;2.50;;
65996;SDS011;52765;52.258;21.052;2023-05-21T09:09:39;5.03;;;1.92;;
65996;SDS011;52765;52.258;21.052;2023-05-21T09:12:13;3.38;;;1.67;;
65996;SDS011;52765;52.258;21.052;2023-05-21T09:14:39;4.03;;;2.00;;
65996;SDS011;52765;52.258;21.052;2023-05-21T09:17:06;5.60;;;2.42;;
65996;SDS011;52765;52.258;21.052;2023-05-21T09:19:31;6.45;;;3.30;;
65996;SDS011;52765;52.258;21.052;2023-05-21T09:22:00;8.85;;;2.65;;
65996;SDS011;52765;52.258;21.052;2023-05-21T09:24:29;6.45;;;2.95;;
65996;SDS011;52765;52.258;21.052;2023-05-21T09:26:59;3.67;;;2.42;;
65996;SDS011;52765;52.258;21.052;2023-05-21T09:29:25;3.80;;;1.75;;
65996;SDS011;52765;52.258;21.052;2023-05-21T09:31:50;3.13;;;2.00;;
65996;SDS011;52765;52.258;21.052;2023-05-21T09:34:18;8.57;;;1.80;;
65996;SDS011;52765;52.258;21.052;2023-05-21T09:36:44;3.60;;;2.20;;
65996;SDS011;52765;52.258;21.052;2023-05-21T09:39:09;5.30;;;1.80;;
65996;SDS011;52765;52.258;21.052;2023-05-21T09:41:40;4.05;;;2.35;;
65996;SDS011;52765;52.258;21.052;2023-05-21T09:44:06;3.60;;;1.67;;
65996;SDS011;52765;52.258;21.052;2023-05-21T09:46:38;3.70;;;1.98;;
65996;SDS011;52765;52.258;21.052;2023-05-21T09:49:05;5.07;;;1.70;;
65996;SDS011;52765;52.258;21.052;2023-05-21T09:51:30;6.57;;;2.75;;
65996;SDS011;52765;52.258;21.052;2023-05-21T09:53:56;3.15;;;1.77;;
65996;SDS011;52765;52.258;21.052;2023-05-21T09:56:22;3.28;;;2.00;;
65996;SDS011;52765;52.258;21.052;2023-05-21T10:01:27;2.15;;;1.60;;
65996;SDS011;52765;52.258;21.052;2023-05-21T10:03:57;5.85;;;2.17;;
65996;SDS011;52765;52.258;21.052;2023-05-21T10:06:25;8.23;;;2.03;;
65996;SDS011;52765;52.258;21.052;2023-05-21T10:08:52;2.88;;;1.63;;
65996;SDS011;52765;52.258;21.052;2023-05-21T10:11:26;8.77;;;2.20;;
65996;SDS011;52765;52.258;21.052;2023-05-21T10:14:37;3.85;;;2.15;;
65996;SDS011;52765;52.258;21.052;2023-05-21T10:19:18;3.78;;;1.80;;
65996;SDS011;52765;52.258;21.052;2023-05-21T10:21:44;3.20;;;2.28;;
65996;SDS011;52765;52.258;21.052;2023-05-21T10:24:11;4.47;;;2.00;;
65996;SDS011;52765;52.258;21.052;2023-05-21T10:26:37;7.82;;;2.25;;
65996;SDS011;52765;52.258;21.052;2023-05-21T10:29:06;4.95;;;1.90;;
65996;SDS011;52765;52.258;21.052;2023-05-21T10:31:34;3.28;;;1.98;;
65996;SDS011;52765;52.258;21.052;2023-05-21T10:34:01;6.82;;;2.30;;
65996;SDS011;52765;52.258;21.052;2023-05-21T10:36:30;4.15;;;1.90;;
65996;SDS011;52765;52.258;21.052;2023-05-21T10:39:00;3.35;;;1.90;;
65996;SDS011;52765;52.258;21.052;2023-05-21T10:41:26;6.22;;;1.92;;
65996;SDS011;52765;52.258;21.052;2023-05-21T10:49:37;3.28;;;2.20;;
65996;SDS011;52765;52.258;21.052;2023-05-21T10:52:37;3.63;;;1.60;;
65996;SDS011;52765;52.258;21.052;2023-05-21T10:58:20;3.80;;;2.20;;
65996;SDS011;52765;52.258;21.052;2023-05-21T11:00:50;6.00;;;2.15;;
65996;SDS011;52765;52.258;21.052;2023-05-21T11:03:19;4.25;;;1.92;;
65996;SDS011;52765;52.258;21.052;2023-05-21T11:05:56;5.13;;;1.90;;
65996;SDS011;52765;52.258;21.052;2023-05-21T11:08:23;6.82;;;3.10;;
65996;SDS011;52765;52.258;21.052;2023-05-21T11:10:50;4.53;;;2.20;;
65996;SDS011;52765;52.258;21.052;2023-05-21T11:13:22;2.30;;;1.85;;
65996;SDS011;52765;52.258;21.052;2023-05-21T11:21:16;3.40;;;1.90;;
65996;SDS011;52765;52.258;21.052;2023-05-21T11:26:57;4.93;;;1.75;;
65996;SDS011;52765;52.258;21.052;2023-05-21T11:29:24;6.00;;;2.20;;
65996;SDS011;52765;52.258;21.052;2023-05-21T11:31:58;2.38;;;1.65;;
65996;SDS011;52765;52.258;21.052;2023-05-21T11:34:45;5.05;;;2.80;;
65996;SDS011;52765;52.258;21.052;2023-05-21T11:40:19;5.35;;;1.98;;
65996;SDS011;52765;52.258;21.052;2023-05-21T11:42:50;4.03;;;2.22;;
65996;SDS011;52765;52.258;21.052;2023-05-21T11:45:18;6.93;;;2.17;;
65996;SDS011;52765;52.258;21.052;2023-05-21T11:47:44;6.35;;;2.20;;
65996;SDS011;52765;52.258;21.052;2023-05-21T11:50:13;7.90;;;2.17;;
65996;SDS011;52765;52.258;21.052;2023-05-21T11:52:41;5.50;;;2.75;;
65996;SDS011;52765;52.258;21.052;2023-05-21T11:55:07;3.25;;;1.60;;
65996;SDS011;52765;52.258;21.052;2023-05-21T11:57:33;6.80;;;2.22;;
65996;SDS011;52765;52.258;21.052;2023-05-21T12:00:00;4.20;;;1.90;;
65996;SDS011;52765;52.258;21.052;2023-05-21T12:02:40;6.70;;;2.30;;
65996;SDS011;52765;52.258;21.052;2023-05-21T12:05:11;6.03;;;2.28;;
65996;SDS011;52765;52.258;21.052;2023-05-21T12:07:40;10.00;;;2.47;;
65996;SDS011;52765;52.258;21.052;2023-05-21T12:10:09;4.70;;;2.20;;
65996;SDS011;52765;52.258;21.052;2023-05-21T12:12:43;5.22;;;1.88;;
65996;SDS011;52765;52.258;21.052;2023-05-21T12:15:12;4.43;;;2.03;;
65996;SDS011;52765;52.258;21.052;2023-05-21T12:17:41;3.00;;;1.83;;
65996;SDS011;52765;52.258;21.052;2023-05-21T12:20:13;4.72;;;2.03;;
65996;SDS011;52765;52.258;21.052;2023-05-21T12:22:39;4.35;;;1.75;;
65996;SDS011;52765;52.258;21.052;2023-05-21T12:25:06;4.97;;;2.33;;
65996;SDS011;52765;52.258;21.052;2023-05-21T12:27:32;4.68;;;2.05;;
65996;SDS011;52765;52.258;21.052;2023-05-21T12:30:01;4.93;;;1.80;;
65996;SDS011;52765;52.258;21.052;2023-05-21T12:32:31;2.63;;;1.88;;
65996;SDS011;52765;52.258;21.052;2023-05-21T12:35:02;4.07;;;1.90;;
65996;SDS011;52765;52.258;21.052;2023-05-21T12:37:29;2.42;;;1.65;;
65996;SDS011;52765;52.258;21.052;2023-05-21T12:40:02;10.18;;;1.75;;
65996;SDS011;52765;52.258;21.052;2023-05-21T12:42:35;3.47;;;1.83;;
65996;SDS011;52765;52.258;21.052;2023-05-21T12:45:07;4.78;;;1.77;;
65996;SDS011;52765;52.258;21.052;2023-05-21T12:47:34;5.07;;;1.95;;
65996;SDS011;52765;52.258;21.052;2023-05-21T12:50:07;5.63;;;2.00;;
65996;SDS011;52765;52.258;21.052;2023-05-21T12:52:36;5.93;;;1.95;;
65996;SDS011;52765;52.258;21.052;2023-05-21T12:55:05;5.75;;;1.63;;
65996;SDS011;52765;52.258;21.052;2023-05-21T12:57:34;6.95;;;2.22;;
65996;SDS011;52765;52.258;21.052;2023-05-21T13:00:02;5.03;;;2.08;;
65996;SDS011;52765;52.258;21.052;2023-05-21T13:02:31;4.43;;;2.42;;
65996;SDS011;52765;52.258;21.052;2023-05-21T13:05:04;4.70;;;1.77;;
65996;SDS011;52765;52.258;21.052;2023-05-21T13:07:35;2.80;;;1.80;;
65996;SDS011;52765;52.258;21.052;2023-05-21T13:10:03;3.03;;;1.50;;
65996;SDS011;52765;52.258;21.052;2023-05-21T13:12:31;3.97;;;1.80;;
65996;SDS011;52765;52.258;21.052;2023-05-21T13:15:00;3.30;;;1.90;;
65996;SDS011;52765;52.258;21.052;2023-05-21T13:17:27;9.90;;;2.72;;
65996;SDS011;52765;52.258;21.052;2023-05-21T13:22:36;2.25;;;1.67;;
65996;SDS011;52765;52.258;21.052;2023-05-21T13:25:03;8.88;;;1.88;;
65996;SDS011;52765;52.258;21.052;2023-05-21T13:27:29;4.18;;;1.83;;
65996;SDS011;52765;52.258;21.052;2023-05-21T13:29:55;2.67;;;1.67;;
65996;SDS011;52765;52.258;21.052;2023-05-21T13:32:20;2.33;;;1.65;;
65996;SDS011;52765;52.258;21.052;2023-05-21T13:34:46;2.22;;;1.55;;
65996;SDS011;52765;52.258;21.052;2023-05-21T13:37:12;2.75;;;1.65;;
65996;SDS011;52765;52.258;21.052;2023-05-21T13:39:38;6.85;;;2.35;;
65996;SDS011;52765;52.258;21.052;2023-05-21T13:42:03;3.78;;;1.67;;
65996;SDS011;52765;52.258;21.052;2023-05-21T13:44:30;5.38;;;2.00;;
65996;SDS011;52765;52.258;21.052;2023-05-21T13:47:00;2.35;;;1.95;;
65996;SDS011;52765;52.258;21.052;2023-05-21T13:49:31;4.28;;;2.10;;
65996;SDS011;52765;52.258;21.052;2023-05-21T13:51:57;3.63;;;1.90;;
65996;SDS011;52765;52.258;21.052;2023-05-21T13:54:24;5.18;;;1.63;;
65996;SDS011;52765;52.258;21.052;2023-05-21T13:56:50;2.15;;;1.67;;
65996;SDS011;52765;52.258;21.052;2023-05-21T13:59:16;4.28;;;1.55;;
65996;SDS011;52765;52.258;21.052;2023-05-21T14:01:41;3.50;;;1.63;;
65996;SDS011;52765;52.258;21.052;2023-05-21T14:04:08;5.13;;;1.80;;
65996;SDS011;52765;52.258;21.052;2023-05-21T14:06:34;3.85;;;1.75;;
65996;SDS011;52765;52.258;21.052;2023-05-21T14:09:00;2.65;;;1.70;;
65996;SDS011;52765;52.258;21.052;2023-05-21T14:11:30;3.95;;;2.13;;
65996;SDS011;52765;52.258;21.052;2023-05-21T14:13:59;3.85;;;2.20;;
65996;SDS011;52765;52.258;21.052;2023-05-21T14:16:25;2.10;;;1.60;;
65996;SDS011;52765;52.258;21.052;2023-05-21T14:18:55;3.33;;;1.77;;
65996;SDS011;52765;52.258;21.052;2023-05-21T14:21:21;2.90;;;1.98;;
65996;SDS011;52765;52.258;21.052;2023-05-21T14:23:47;3.58;;;2.03;;
65996;SDS011;52765;52.258;21.052;2023-05-21T14:26:17;3.85;;;1.80;;
65996;SDS011;52765;52.258;21.052;2023-05-21T14:28:43;6.50;;;1.95;;
65996;SDS011;52765;52.258;21.052;2023-05-21T14:31:13;3.75;;;1.40;;
65996;SDS011;52765;52.258;21.052;2023-05-21T14:33:39;3.97;;;2.00;;
65996;SDS011;52765;52.258;21.052;2023-05-21T14:36:04;2.35;;;1.50;;
65996;SDS011;52765;52.258;21.052;2023-05-21T14:38:30;3.63;;;1.75;;
65996;SDS011;52765;52.258;21.052;2023-05-21T14:40:56;3.83;;;1.88;;
65996;SDS011;52765;52.258;21.052;2023-05-21T14:43:21;2.78;;;1.77;;
65996;SDS011;52765;52.258;21.052;2023-05-21T14:45:48;2.97;;;1.60;;
65996;SDS011;52765;52.258;21.052;2023-05-21T14:48:15;4.60;;;1.83;;
65996;SDS011;52765;52.258;21.052;2023-05-21T14:50:42;4.13;;;2.00;;
65996;SDS011;52765;52.258;21.052;2023-05-21T14:53:08;2.47;;;1.60;;
65996;SDS011;52765;52.258;21.052;2023-05-21T14:55:35;7.35;;;2.10;;
65996;SDS011;52765;52.258;21.052;2023-05-21T14:58:01;3.17;;;1.83;;
65996;SDS011;52765;52.258;21.052;2023-05-21T15:00:30;2.55;;;1.80;;
65996;SDS011;52765;52.258;21.052;2023-05-21T15:02:57;3.50;;;1.98;;
65996;SDS011;52765;52.258;21.052;2023-05-21T15:05:23;5.93;;;1.77;;
65996;SDS011;52765;52.258;21.052;2023-05-21T15:07:49;3.47;;;1.63;;
65996;SDS011;52765;52.258;21.052;2023-05-21T15:10:15;2.13;;;1.80;;
65996;SDS011;52765;52.258;21.052;2023-05-21T15:12:40;2.72;;;1.88;;